Time;durP1;ratioP1;P1;durP2;ratioP2;P2;SDS_P1;SDS_P2;PMS_P1;PMS_P2;Temp;Humidity;BMP_temperature;BMP_pressure;BME280_temperature;BME280_humidity;BME280_pressure;Samples;Min_cycle;Max_cycle;Signal;HPM_P1;HPM_P2
2022/03/30 00:01:34;;;;;;;32.72;14.75;;;;;;;;;;5097082;28;20281;-69
2022/03/30 00:04:01;;;;;;;22.20;13.40;;;;;;;;;;5096612;28;20198;-68
2022/03/30 00:06:28;;;;;;;23.45;12.77;;;;;;;;;;5096969;28;20293;-68
2022/03/30 00:08:55;;;;;;;23.85;12.80;;;;;;;;;;5096933;28;20199;-68
2022/03/30 00:11:23;;;;;;;23.90;12.02;;;;;;;;;;5096590;28;20280;-68
2022/03/30 00:13:50;;;;;;;29.00;14.27;;;;;;;;;;5096577;28;20210;-69
2022/03/30 00:16:17;;;;;;;24.42;13.43;;;;;;;;;;5096690;28;20235;-69
2022/03/30 00:18:46;;;;;;;19.80;10.68;;;;;;;;;;5096738;28;20674;-69
2022/03/30 00:21:14;;;;;;;23.77;12.73;;;;;;;;;;5096443;28;20206;-69
2022/03/30 00:23:41;;;;;;;25.92;12.43;;;;;;;;;;5097240;28;20198;-69
2022/03/30 00:26:08;;;;;;;20.88;12.30;;;;;;;;;;5096699;28;20255;-69
2022/03/30 00:28:36;;;;;;;24.65;12.70;;;;;;;;;;5096575;28;20195;-69
2022/03/30 00:31:03;;;;;;;18.92;11.15;;;;;;;;;;5096465;28;20212;-68
2022/03/30 00:33:30;;;;;;;25.67;12.48;;;;;;;;;;5095350;28;20217;-68
2022/03/30 00:35:59;;;;;;;30.77;14.35;;;;;;;;;;5096720;28;20288;-68
2022/03/30 00:38:26;;;;;;;27.88;13.90;;;;;;;;;;5096320;28;20287;-68
2022/03/30 00:40:53;;;;;;;21.13;12.63;;;;;;;;;;5096398;28;20288;-68
2022/03/30 00:43:20;;;;;;;32.28;12.07;;;;;;;;;;5096478;28;20667;-69
2022/03/30 00:45:47;;;;;;;27.65;12.18;;;;;;;;;;5095969;28;20227;-68
2022/03/30 00:48:15;;;;;;;23.65;11.57;;;;;;;;;;5096204;28;20194;-68
2022/03/30 00:50:42;;;;;;;22.60;11.88;;;;;;;;;;5096263;28;20590;-68
2022/03/30 00:53:10;;;;;;;25.75;11.88;;;;;;;;;;5096240;28;20199;-68
2022/03/30 00:55:38;;;;;;;32.72;14.20;;;;;;;;;;5096151;28;20206;-68
2022/03/30 00:58:07;;;;;;;23.52;12.70;;;;;;;;;;5096103;28;20221;-69
2022/03/30 01:00:34;;;;;;;25.45;12.48;;;;;;;;;;5095614;28;20678;-68
2022/03/30 01:03:01;;;;;;;28.88;11.35;;;;;;;;;;5095874;28;20229;-68
2022/03/30 01:05:29;;;;;;;21.98;11.95;;;;;;;;;;5095847;28;20203;-68
2022/03/30 01:07:58;;;;;;;19.85;11.85;;;;;;;;;;5095934;28;20564;-68
2022/03/30 01:10:27;;;;;;;20.27;12.50;;;;;;;;;;5095689;28;20241;-68
2022/03/30 01:12:54;;;;;;;20.50;11.95;;;;;;;;;;5095822;28;20191;-68
2022/03/30 01:15:22;;;;;;;24.75;12.43;;;;;;;;;;5095718;28;20200;-68
2022/03/30 01:17:50;;;;;;;26.83;12.35;;;;;;;;;;5095986;28;20317;-68
2022/03/30 01:20:18;;;;;;;24.83;12.52;;;;;;;;;;5095618;28;20205;-68
2022/03/30 01:22:47;;;;;;;27.67;11.93;;;;;;;;;;5095354;28;20660;-70
2022/03/30 01:25:14;;;;;;;27.25;13.27;;;;;;;;;;5095393;28;20200;-68
2022/03/30 01:27:42;;;;;;;33.70;13.30;;;;;;;;;;5096080;28;20537;-68
2022/03/30 01:32:55;;;;;;;29.45;15.10;;;;;;;;;;5095516;28;20232;-68
2022/03/30 01:35:23;;;;;;;23.15;12.23;;;;;;;;;;5095507;28;20195;-68
2022/03/30 01:37:51;;;;;;;22.50;13.27;;;;;;;;;;5095488;28;20196;-69
2022/03/30 01:40:19;;;;;;;22.60;12.32;;;;;;;;;;5095387;28;20199;-68
2022/03/30 01:42:46;;;;;;;24.35;13.38;;;;;;;;;;5095190;28;20204;-68
2022/03/30 01:45:15;;;;;;;23.67;12.52;;;;;;;;;;5094855;28;20248;-68
2022/03/30 01:47:48;;;;;;;22.50;11.95;;;;;;;;;;5095263;28;20281;-69
2022/03/30 01:50:15;;;;;;;21.13;12.40;;;;;;;;;;5094639;28;20209;-68
2022/03/30 01:52:43;;;;;;;21.48;13.20;;;;;;;;;;5094725;28;20198;-69
2022/03/30 01:55:11;;;;;;;21.77;13.75;;;;;;;;;;5094581;28;20196;-68
2022/03/30 01:57:39;;;;;;;28.35;13.15;;;;;;;;;;5094943;28;20567;-69
2022/03/30 02:00:07;;;;;;;24.00;13.65;;;;;;;;;;5094591;28;20278;-69
2022/03/30 02:02:34;;;;;;;27.35;15.60;;;;;;;;;;5095102;28;20256;-68
2022/03/30 02:05:01;;;;;;;25.48;13.25;;;;;;;;;;5094702;28;20306;-69
2022/03/30 02:07:29;;;;;;;23.45;13.38;;;;;;;;;;5094446;28;20201;-69
2022/03/30 02:09:56;;;;;;;24.38;14.45;;;;;;;;;;5094799;28;20231;-68
2022/03/30 02:12:24;;;;;;;35.03;14.38;;;;;;;;;;5094654;28;20205;-68
2022/03/30 02:14:53;;;;;;;32.17;14.25;;;;;;;;;;5094281;28;20289;-69
2022/03/30 02:17:23;;;;;;;22.27;11.15;;;;;;;;;;5094334;28;20227;-68
2022/03/30 02:19:50;;;;;;;28.70;14.23;;;;;;;;;;5094132;28;20198;-69
2022/03/30 02:22:17;;;;;;;20.05;13.25;;;;;;;;;;5094185;28;20198;-68
2022/03/30 02:24:44;;;;;;;24.45;13.70;;;;;;;;;;5094054;28;20203;-69
2022/03/30 02:27:11;;;;;;;19.38;12.93;;;;;;;;;;5094486;28;20300;-68
2022/03/30 02:29:40;;;;;;;22.25;13.07;;;;;;;;;;5094873;28;20550;-69
2022/03/30 02:32:08;;;;;;;25.75;14.23;;;;;;;;;;5094238;28;20221;-69
2022/03/30 02:34:35;;;;;;;26.42;13.85;;;;;;;;;;5094148;28;20189;-69
2022/03/30 02:37:02;;;;;;;26.60;14.48;;;;;;;;;;5094156;28;20200;-69
2022/03/30 02:39:29;;;;;;;24.85;14.40;;;;;;;;;;5093947;28;20289;-69
2022/03/30 02:41:57;;;;;;;22.77;12.20;;;;;;;;;;5094116;28;20280;-69
2022/03/30 02:44:24;;;;;;;26.85;14.40;;;;;;;;;;5094125;28;20651;-68
2022/03/30 02:46:52;;;;;;;33.45;16.00;;;;;;;;;;5094268;28;20229;-68
2022/03/30 02:49:19;;;;;;;28.00;14.98;;;;;;;;;;5094403;28;20554;-69
2022/03/30 02:51:47;;;;;;;30.80;14.93;;;;;;;;;;5094091;28;20237;-69
2022/03/30 02:54:14;;;;;;;29.90;14.80;;;;;;;;;;5093984;28;20567;-69
2022/03/30 02:56:41;;;;;;;27.75;15.13;;;;;;;;;;5093167;28;20294;-69
2022/03/30 02:59:08;;;;;;;28.90;15.43;;;;;;;;;;5093638;28;20190;-69
2022/03/30 03:01:35;;;;;;;23.88;13.70;;;;;;;;;;5093521;28;20280;-68
2022/03/30 03:04:04;;;;;;;23.58;15.43;;;;;;;;;;5094170;28;20205;-69
2022/03/30 03:06:32;;;;;;;31.35;14.40;;;;;;;;;;5093827;28;20190;-69
2022/03/30 03:08:59;;;;;;;25.92;15.82;;;;;;;;;;5094318;28;20191;-69
2022/03/30 03:11:26;;;;;;;25.05;17.15;;;;;;;;;;5093536;28;20225;-69
2022/03/30 03:13:53;;;;;;;22.05;13.68;;;;;;;;;;5093410;28;20289;-69
2022/03/30 03:16:20;;;;;;;27.15;12.93;;;;;;;;;;5093431;28;20327;-69
2022/03/30 03:18:48;;;;;;;24.77;14.48;;;;;;;;;;5093733;28;20203;-69
2022/03/30 03:21:17;;;;;;;23.80;13.45;;;;;;;;;;5093269;28;20252;-68
2022/03/30 03:23:44;;;;;;;33.67;14.30;;;;;;;;;;5093654;28;20292;-68
2022/03/30 03:26:11;;;;;;;21.67;14.05;;;;;;;;;;5093524;28;20282;-69
2022/03/30 03:28:38;;;;;;;27.15;15.43;;;;;;;;;;5093314;28;20285;-69
2022/03/30 03:31:05;;;;;;;27.45;15.63;;;;;;;;;;5093106;28;20213;-68
2022/03/30 03:33:33;;;;;;;25.67;14.68;;;;;;;;;;5093384;28;20199;-69
2022/03/30 03:36:00;;;;;;;28.73;15.32;;;;;;;;;;5093354;28;20295;-69
2022/03/30 03:38:29;;;;;;;20.80;12.57;;;;;;;;;;5093210;28;20194;-68
2022/03/30 03:40:56;;;;;;;24.25;15.27;;;;;;;;;;5093429;28;20199;-68
2022/03/30 03:43:23;;;;;;;31.25;15.10;;;;;;;;;;5093124;28;20191;-68
2022/03/30 03:45:50;;;;;;;23.92;13.10;;;;;;;;;;5092780;28;20219;-68
2022/03/30 03:48:17;;;;;;;30.55;14.80;;;;;;;;;;5093288;28;20558;-69
2022/03/30 03:50:45;;;;;;;26.95;13.00;;;;;;;;;;5093303;28;20318;-69
2022/03/30 03:53:12;;;;;;;33.17;13.70;;;;;;;;;;5093312;28;20202;-69
2022/03/30 03:55:40;;;;;;;30.20;14.45;;;;;;;;;;5093376;28;20571;-66
2022/03/30 03:58:09;;;;;;;27.25;13.73;;;;;;;;;;5093268;28;20290;-70
2022/03/30 04:00:36;;;;;;;22.58;13.18;;;;;;;;;;5093023;28;20732;-70
2022/03/30 04:03:03;;;;;;;29.38;15.10;;;;;;;;;;5093151;28;20208;-69
2022/03/30 04:05:31;;;;;;;27.20;14.48;;;;;;;;;;5093550;28;20282;-70
2022/03/30 04:07:58;;;;;;;27.00;13.77;;;;;;;;;;5092730;28;20233;-69
2022/03/30 04:10:25;;;;;;;25.60;14.15;;;;;;;;;;5096351;28;20192;-69
2022/03/30 04:12:54;;;;;;;26.98;15.00;;;;;;;;;;5096458;28;20190;-69
2022/03/30 04:15:21;;;;;;;26.75;16.88;;;;;;;;;;5096480;28;20537;-70
2022/03/30 04:17:49;;;;;;;23.70;14.32;;;;;;;;;;5096911;28;20205;-69
2022/03/30 04:20:17;;;;;;;30.80;15.00;;;;;;;;;;5096648;28;20202;-69
2022/03/30 04:22:45;;;;;;;30.20;14.57;;;;;;;;;;5096508;28;20284;-70
2022/03/30 04:25:12;;;;;;;27.00;14.68;;;;;;;;;;5096277;28;20643;-69
2022/03/30 04:27:46;;;;;;;28.52;14.50;;;;;;;;;;5096271;28;20295;-70
2022/03/30 04:30:15;;;;;;;33.22;16.02;;;;;;;;;;5096439;28;20623;-69
2022/03/30 04:32:42;;;;;;;28.75;15.43;;;;;;;;;;5095805;28;20259;-69
2022/03/30 04:35:11;;;;;;;28.98;15.32;;;;;;;;;;5096549;28;20234;-70
2022/03/30 04:37:38;;;;;;;28.10;14.65;;;;;;;;;;5096094;28;20555;-69
2022/03/30 04:40:06;;;;;;;22.25;14.82;;;;;;;;;;5096081;28;20285;-69
2022/03/30 04:42:33;;;;;;;27.83;16.05;;;;;;;;;;5095459;28;20194;-69
2022/03/30 04:45:00;;;;;;;29.25;14.52;;;;;;;;;;5096196;28;20195;-70
2022/03/30 04:47:30;;;;;;;28.50;16.33;;;;;;;;;;5096142;28;20217;-70
2022/03/30 04:49:57;;;;;;;33.15;15.85;;;;;;;;;;5096185;28;20205;-71
2022/03/30 04:52:25;;;;;;;31.38;15.02;;;;;;;;;;5095794;28;20215;-69
2022/03/30 04:54:52;;;;;;;29.80;14.65;;;;;;;;;;5096184;28;20200;-70
2022/03/30 04:57:20;;;;;;;26.90;15.65;;;;;;;;;;5096033;28;20202;-70
2022/03/30 04:59:47;;;;;;;24.67;15.57;;;;;;;;;;5095625;28;20670;-71
2022/03/30 05:02:15;;;;;;;24.40;12.68;;;;;;;;;;5095165;28;20237;-70
2022/03/30 05:04:43;;;;;;;28.30;14.32;;;;;;;;;;5095899;28;20247;-70
2022/03/30 05:07:11;;;;;;;27.63;15.02;;;;;;;;;;5095686;28;20286;-70
2022/03/30 05:09:38;;;;;;;26.15;13.93;;;;;;;;;;5075590;28;20194;-70
2022/03/30 05:12:05;;;;;;;33.33;15.75;;;;;;;;;;5075503;28;20249;-70
2022/03/30 05:14:33;;;;;;;32.28;13.70;;;;;;;;;;5075966;28;20198;-70
2022/03/30 05:17:01;;;;;;;27.73;14.90;;;;;;;;;;5075661;28;20201;-70
2022/03/30 05:19:28;;;;;;;24.90;14.82;;;;;;;;;;5074698;28;20197;-71
2022/03/30 05:21:57;;;;;;;19.90;15.18;;;;;;;;;;5074539;28;20202;-70
2022/03/30 05:24:24;;;;;;;32.13;15.77;;;;;;;;;;5074925;28;20684;-70
2022/03/30 05:26:53;;;;;;;22.10;12.73;;;;;;;;;;5074972;28;20234;-71
2022/03/30 05:29:20;;;;;;;28.52;14.57;;;;;;;;;;5075288;28;20562;-71
2022/03/30 05:31:52;;;;;;;28.73;15.45;;;;;;;;;;5075160;28;20221;-70
2022/03/30 05:34:19;;;;;;;27.58;13.45;;;;;;;;;;5074988;28;20667;-71
2022/03/30 05:36:46;;;;;;;22.27;14.02;;;;;;;;;;5074804;28;20282;-70
2022/03/30 05:39:15;;;;;;;30.60;14.20;;;;;;;;;;5091882;28;20205;-71
2022/03/30 05:41:42;;;;;;;34.55;15.02;;;;;;;;;;5095481;28;20323;-71
2022/03/30 05:44:09;;;;;;;22.40;13.50;;;;;;;;;;5094835;28;20229;-71
2022/03/30 05:46:37;;;;;;;33.00;14.93;;;;;;;;;;5095252;28;20227;-71
2022/03/30 05:49:04;;;;;;;30.65;14.73;;;;;;;;;;5095084;28;20224;-71
2022/03/30 05:51:32;;;;;;;26.05;15.13;;;;;;;;;;5094645;28;20217;-71
2022/03/30 05:53:59;;;;;;;21.65;14.43;;;;;;;;;;5094612;28;20197;-71
2022/03/30 05:59:09;;;;;;;29.67;15.10;;;;;;;;;;5094375;28;20192;-71
2022/03/30 06:01:36;;;;;;;29.83;15.55;;;;;;;;;;5094931;28;20194;-70
2022/03/30 06:04:04;;;;;;;27.77;14.88;;;;;;;;;;5095109;28;20620;-70
2022/03/30 06:06:31;;;;;;;25.30;15.70;;;;;;;;;;5095424;28;20198;-71
2022/03/30 06:08:58;;;;;;;27.02;15.05;;;;;;;;;;5094372;28;20681;-71
2022/03/30 06:11:25;;;;;;;34.08;15.38;;;;;;;;;;5094686;28;20217;-70
2022/03/30 06:13:56;;;;;;;27.02;14.65;;;;;;;;;;5094605;28;20191;-71
2022/03/30 06:16:23;;;;;;;30.05;14.43;;;;;;;;;;5094469;28;20240;-70
2022/03/30 06:18:50;;;;;;;29.48;13.38;;;;;;;;;;5094770;28;20194;-70
2022/03/30 06:21:18;;;;;;;28.77;14.02;;;;;;;;;;5094505;28;20194;-70
2022/03/30 06:23:45;;;;;;;32.85;15.05;;;;;;;;;;5094532;28;20569;-70
2022/03/30 06:26:12;;;;;;;29.60;14.20;;;;;;;;;;5094447;28;20197;-71
2022/03/30 06:28:39;;;;;;;30.50;14.70;;;;;;;;;;5093915;28;20194;-70
2022/03/30 06:31:09;;;;;;;23.42;15.05;;;;;;;;;;5094471;28;20194;-71
2022/03/30 06:33:36;;;;;;;27.77;14.10;;;;;;;;;;5095063;28;20259;-70
2022/03/30 06:36:05;;;;;;;24.60;13.90;;;;;;;;;;5093899;28;20202;-70
2022/03/30 06:38:32;;;;;;;28.15;15.40;;;;;;;;;;5093845;28;20202;-70
2022/03/30 06:40:59;;;;;;;21.02;13.18;;;;;;;;;;5093945;28;20201;-71
2022/03/30 06:43:27;;;;;;;26.60;13.30;;;;;;;;;;5093779;28;20223;-71
2022/03/30 06:45:54;;;;;;;24.48;14.13;;;;;;;;;;5093606;28;20624;-71
2022/03/30 06:48:23;;;;;;;24.58;12.77;;;;;;;;;;5094306;28;20196;-70
2022/03/30 06:50:50;;;;;;;25.73;13.05;;;;;;;;;;5094207;28;20655;-70
2022/03/30 06:53:17;;;;;;;22.00;13.80;;;;;;;;;;5093483;28;20214;-71
2022/03/30 06:55:45;;;;;;;24.33;13.63;;;;;;;;;;5093913;28;20201;-70
2022/03/30 06:58:12;;;;;;;23.85;12.63;;;;;;;;;;5094457;28;20590;-71
2022/03/30 07:00:39;;;;;;;25.00;13.55;;;;;;;;;;5093850;28;20597;-70
2022/03/30 07:03:07;;;;;;;21.95;12.35;;;;;;;;;;5093517;28;20652;-70
2022/03/30 07:05:37;;;;;;;26.60;13.15;;;;;;;;;;5093386;28;20198;-70
2022/03/30 07:10:49;;;;;;;27.13;11.90;;;;;;;;;;5093506;28;20182;-71
2022/03/30 07:13:16;;;;;;;20.70;10.63;;;;;;;;;;5093712;28;20544;-70
2022/03/30 07:15:44;;;;;;;21.92;11.75;;;;;;;;;;5093528;28;20201;-70
2022/03/30 07:18:13;;;;;;;22.45;12.77;;;;;;;;;;5093392;28;20280;-71
2022/03/30 07:20:41;;;;;;;22.27;11.70;;;;;;;;;;5093572;28;20193;-70
2022/03/30 07:23:10;;;;;;;17.25;10.25;;;;;;;;;;5093681;28;20205;-70
2022/03/30 07:25:37;;;;;;;28.08;12.77;;;;;;;;;;5093284;28;20226;-70
2022/03/30 07:28:05;;;;;;;21.80;11.07;;;;;;;;;;5093542;28;20277;-71
2022/03/30 07:30:32;;;;;;;22.25;11.88;;;;;;;;;;5093474;28;20199;-70
2022/03/30 07:33:00;;;;;;;16.88;11.02;;;;;;;;;;5093135;28;20687;-71
2022/03/30 07:35:28;;;;;;;23.52;11.60;;;;;;;;;;5093473;28;20187;-70
2022/03/30 07:37:57;;;;;;;21.15;10.98;;;;;;;;;;5093131;28;20294;-71
2022/03/30 07:40:25;;;;;;;21.55;11.32;;;;;;;;;;5093503;28;20195;-71
2022/03/30 07:42:54;;;;;;;21.08;11.05;;;;;;;;;;5093472;28;20198;-71
2022/03/30 07:45:23;;;;;;;20.30;11.15;;;;;;;;;;5097535;28;20731;-71
2022/03/30 07:47:51;;;;;;;21.95;10.00;;;;;;;;;;5098259;28;20194;-71
2022/03/30 07:50:19;;;;;;;24.90;11.00;;;;;;;;;;5097317;28;20212;-71
2022/03/30 07:52:46;;;;;;;19.88;9.68;;;;;;;;;;5097004;28;20229;-71
2022/03/30 07:55:15;;;;;;;18.08;9.10;;;;;;;;;;5097530;28;20589;-71
2022/03/30 07:57:43;;;;;;;22.23;9.15;;;;;;;;;;5097750;28;20193;-70
2022/03/30 08:00:11;;;;;;;12.75;8.52;;;;;;;;;;5097201;28;20285;-70
2022/03/30 08:02:39;;;;;;;16.90;8.75;;;;;;;;;;5097153;28;20198;-70
2022/03/30 08:05:08;;;;;;;15.65;9.18;;;;;;;;;;5096965;28;20194;-70
2022/03/30 08:07:35;;;;;;;16.50;8.05;;;;;;;;;;5096695;28;20720;-70
2022/03/30 08:10:02;;;;;;;21.00;8.60;;;;;;;;;;5097026;28;20720;-70
2022/03/30 08:12:31;;;;;;;21.45;9.13;;;;;;;;;;5096977;28;20224;-71
2022/03/30 08:14:59;;;;;;;12.63;7.60;;;;;;;;;;5096622;28;20199;-71
2022/03/30 08:17:26;;;;;;;17.85;8.93;;;;;;;;;;5097279;28;20194;-70
2022/03/30 08:19:54;;;;;;;21.25;8.13;;;;;;;;;;5096356;28;20229;-71
2022/03/30 08:22:27;;;;;;;19.98;9.45;;;;;;;;;;5096467;28;20207;-70
2022/03/30 08:24:55;;;;;;;21.77;10.10;;;;;;;;;;5097012;28;20187;-70
2022/03/30 08:27:24;;;;;;;16.35;10.32;;;;;;;;;;5096968;28;20556;-70
2022/03/30 08:29:54;;;;;;;14.63;7.75;;;;;;;;;;5096115;28;20256;-71
2022/03/30 08:32:21;;;;;;;18.77;8.57;;;;;;;;;;5096451;28;20216;-71
2022/03/30 08:34:49;;;;;;;13.57;8.40;;;;;;;;;;5096403;28;20195;-70
2022/03/30 08:37:17;;;;;;;17.58;8.60;;;;;;;;;;5096679;28;20190;-70
2022/03/30 08:39:44;;;;;;;15.65;9.07;;;;;;;;;;5096303;28;20285;-71
2022/03/30 08:42:13;;;;;;;22.55;9.13;;;;;;;;;;5095815;28;20655;-70
2022/03/30 08:44:41;;;;;;;19.52;9.30;;;;;;;;;;5096662;28;20547;-70
2022/03/30 08:47:10;;;;;;;14.23;7.78;;;;;;;;;;5095856;28;20198;-72
2022/03/30 08:49:37;;;;;;;16.23;7.75;;;;;;;;;;5096613;28;20530;-70
2022/03/30 08:52:05;;;;;;;16.17;8.13;;;;;;;;;;5095933;28;20275;-70
2022/03/30 08:54:34;;;;;;;15.55;8.20;;;;;;;;;;5095614;28;20682;-71
2022/03/30 08:57:01;;;;;;;23.95;9.65;;;;;;;;;;5096023;28;20548;-71
2022/03/30 08:59:28;;;;;;;19.02;8.00;;;;;;;;;;5096083;28;20672;-70
2022/03/30 09:01:57;;;;;;;20.65;9.40;;;;;;;;;;5095693;28;20196;-71
2022/03/30 09:04:26;;;;;;;18.40;9.20;;;;;;;;;;5095859;28;20203;-70
2022/03/30 09:06:54;;;;;;;19.90;8.68;;;;;;;;;;5095796;28;20649;-71
2022/03/30 09:09:29;;;;;;;18.85;10.50;;;;;;;;;;5095792;28;20206;-71
2022/03/30 09:11:56;;;;;;;25.10;11.48;;;;;;;;;;5095899;28;20184;-70
2022/03/30 09:14:24;;;;;;;17.90;9.63;;;;;;;;;;5095846;28;20223;-71
2022/03/30 09:16:53;;;;;;;23.00;9.20;;;;;;;;;;5095851;28;20329;-71
2022/03/30 09:19:21;;;;;;;26.25;8.77;;;;;;;;;;5095946;28;20205;-71
2022/03/30 09:21:51;;;;;;;14.30;9.55;;;;;;;;;;5095469;28;20215;-70
2022/03/30 09:24:19;;;;;;;15.52;8.15;;;;;;;;;;5095489;28;20205;-71
2022/03/30 09:26:47;;;;;;;18.67;9.07;;;;;;;;;;5096153;28;20220;-71
2022/03/30 09:29:15;;;;;;;20.50;10.32;;;;;;;;;;5095521;28;20207;-70
2022/03/30 09:31:43;;;;;;;19.63;8.48;;;;;;;;;;5094949;28;20206;-71
2022/03/30 09:34:11;;;;;;;14.02;7.95;;;;;;;;;;5095075;28;20257;-71
2022/03/30 09:36:39;;;;;;;18.83;9.32;;;;;;;;;;5095592;28;20205;-71
2022/03/30 09:39:08;;;;;;;15.32;10.27;;;;;;;;;;5095275;28;20207;-71
2022/03/30 09:41:48;;;;;;;17.10;9.05;;;;;;;;;;5095154;28;20194;-70
2022/03/30 09:44:16;;;;;;;19.65;9.38;;;;;;;;;;5095163;28;20205;-70
2022/03/30 09:46:53;;;;;;;20.70;9.95;;;;;;;;;;5095050;28;20233;-71
2022/03/30 09:49:39;;;;;;;21.50;10.77;;;;;;;;;;5094952;28;20196;-71
2022/03/30 09:52:14;;;;;;;16.35;9.55;;;;;;;;;;5094781;28;20645;-71
2022/03/30 09:54:43;;;;;;;21.75;10.82;;;;;;;;;;5094569;28;20193;-71
2022/03/30 09:57:11;;;;;;;16.45;8.60;;;;;;;;;;5095020;28;20285;-70
2022/03/30 10:00:02;;;;;;;20.95;9.90;;;;;;;;;;5094555;28;20195;-70
2022/03/30 10:02:31;;;;;;;18.58;9.57;;;;;;;;;;5094986;28;20536;-71
2022/03/30 10:04:59;;;;;;;26.67;11.30;;;;;;;;;;5094669;28;20203;-71
2022/03/30 10:07:27;;;;;;;19.23;8.38;;;;;;;;;;5094005;28;20202;-72
2022/03/30 10:09:56;;;;;;;14.00;7.95;;;;;;;;;;5094721;28;20283;-70
2022/03/30 10:12:24;;;;;;;17.38;9.23;;;;;;;;;;5094729;28;20196;-71
2022/03/30 10:14:51;;;;;;;14.90;8.95;;;;;;;;;;5094594;28;20212;-71
2022/03/30 10:17:19;;;;;;;10.70;7.95;;;;;;;;;;5094597;28;20235;-70
2022/03/30 10:19:55;;;;;;;13.35;8.20;;;;;;;;;;5094556;28;20283;-70
2022/03/30 10:22:32;;;;;;;18.40;8.70;;;;;;;;;;5094560;28;20633;-70
2022/03/30 10:25:07;;;;;;;14.45;8.95;;;;;;;;;;5094077;28;20659;-69
2022/03/30 10:27:38;;;;;;;13.25;8.57;;;;;;;;;;5094469;28;20184;-69
2022/03/30 10:30:07;;;;;;;25.70;10.02;;;;;;;;;;5094345;28;20184;-70
2022/03/30 10:32:35;;;;;;;15.00;9.68;;;;;;;;;;5094018;28;20198;-70
2022/03/30 10:35:03;;;;;;;16.35;7.78;;;;;;;;;;5094258;28;20254;-70
2022/03/30 10:37:34;;;;;;;17.92;8.73;;;;;;;;;;5094054;28;20191;-70
2022/03/30 10:40:11;;;;;;;15.80;9.60;;;;;;;;;;5094563;28;20271;-71
2022/03/30 10:43:11;;;;;;;13.77;8.23;;;;;;;;;;5093969;28;20277;-70
2022/03/30 10:45:50;;;;;;;11.50;7.32;;;;;;;;;;5071224;28;20262;-71
2022/03/30 10:48:22;;;;;;;9.85;6.30;;;;;;;;;;5071248;28;20194;-71
2022/03/30 10:50:50;;;;;;;10.93;7.40;;;;;;;;;;5083859;28;20252;-71
2022/03/30 10:53:38;;;;;;;13.55;8.77;;;;;;;;;;5093337;28;20220;-71
2022/03/30 10:56:24;;;;;;;13.32;6.93;;;;;;;;;;5093925;28;20246;-71
2022/03/30 10:59:09;;;;;;;11.88;7.78;;;;;;;;;;5093793;28;20282;-71
2022/03/30 11:01:38;;;;;;;15.20;8.93;;;;;;;;;;5093850;28;20553;-71
2022/03/30 11:04:06;;;;;;;12.65;7.00;;;;;;;;;;5093412;28;20280;-70
2022/03/30 11:06:36;;;;;;;10.77;6.97;;;;;;;;;;5093812;28;20618;-71
2022/03/30 11:09:03;;;;;;;10.75;8.05;;;;;;;;;;5093604;28;20203;-70
2022/03/30 11:11:34;;;;;;;11.40;7.07;;;;;;;;;;5093492;28;20240;-70
2022/03/30 11:14:20;;;;;;;11.35;7.38;;;;;;;;;;5093621;28;20213;-70
2022/03/30 11:16:50;;;;;;;12.70;8.32;;;;;;;;;;5093818;28;20193;-70
2022/03/30 11:19:17;;;;;;;14.55;8.80;;;;;;;;;;5092553;28;20199;-70
2022/03/30 11:21:54;;;;;;;13.82;9.13;;;;;;;;;;5093599;28;20201;-70
2022/03/30 11:24:22;;;;;;;15.18;7.75;;;;;;;;;;5093560;28;20189;-70
2022/03/30 11:27:08;;;;;;;11.88;7.88;;;;;;;;;;5092936;28;20280;-70
2022/03/30 11:29:48;;;;;;;14.23;8.63;;;;;;;;;;5093410;28;20195;-69
2022/03/30 11:32:34;;;;;;;11.20;8.00;;;;;;;;;;5093186;28;20661;-70
2022/03/30 11:35:05;;;;;;;16.58;9.10;;;;;;;;;;5093042;28;20213;-69
2022/03/30 11:37:34;;;;;;;11.73;7.35;;;;;;;;;;5093492;28;20597;-70
2022/03/30 11:40:01;;;;;;;10.48;7.50;;;;;;;;;;5093346;28;20274;-70
2022/03/30 11:42:29;;;;;;;13.20;8.80;;;;;;;;;;5093175;28;20193;-69
2022/03/30 11:45:15;;;;;;;14.75;8.35;;;;;;;;;;5092896;28;20288;-71
2022/03/30 11:47:43;;;;;;;13.55;7.53;;;;;;;;;;5094045;28;20201;-71
2022/03/30 11:50:12;;;;;;;13.00;8.10;;;;;;;;;;5093421;28;20202;-70
2022/03/30 11:52:39;;;;;;;10.30;7.07;;;;;;;;;;5093249;28;20193;-71
2022/03/30 11:55:08;;;;;;;13.50;8.05;;;;;;;;;;5093049;28;20213;-71
2022/03/30 11:57:39;;;;;;;7.90;6.70;;;;;;;;;;5093355;28;20218;-72
2022/03/30 12:00:09;;;;;;;10.43;7.40;;;;;;;;;;5093261;28;20196;-71
2022/03/30 12:02:36;;;;;;;8.17;6.77;;;;;;;;;;5093827;28;20186;-70
2022/03/30 12:05:04;;;;;;;14.13;8.15;;;;;;;;;;5092915;28;20439;-69
2022/03/30 12:07:36;;;;;;;10.25;6.40;;;;;;;;;;5093089;28;20283;-69
2022/03/30 12:10:04;;;;;;;14.18;7.15;;;;;;;;;;5093048;28;20698;-69
2022/03/30 12:12:35;;;;;;;7.50;6.10;;;;;;;;;;5092622;28;20281;-69
2022/03/30 12:15:03;;;;;;;10.70;6.72;;;;;;;;;;5092871;28;20563;-70
2022/03/30 12:17:30;;;;;;;11.60;7.38;;;;;;;;;;5093695;28;20318;-70
2022/03/30 12:19:58;;;;;;;13.63;6.60;;;;;;;;;;5092634;28;20232;-70
2022/03/30 12:22:25;;;;;;;12.20;7.43;;;;;;;;;;5092711;28;20443;-70
2022/03/30 12:24:54;;;;;;;10.90;6.00;;;;;;;;;;5092695;28;20200;-70
2022/03/30 12:27:22;;;;;;;8.05;5.53;;;;;;;;;;5092652;28;20284;-71
2022/03/30 12:29:49;;;;;;;8.32;5.53;;;;;;;;;;5094439;28;20209;-71
2022/03/30 12:32:17;;;;;;;9.60;6.80;;;;;;;;;;5096287;28;20723;-71
2022/03/30 12:34:46;;;;;;;8.37;5.80;;;;;;;;;;5096375;28;20478;-70
2022/03/30 12:37:20;;;;;;;7.18;6.00;;;;;;;;;;5096256;28;20444;-70
2022/03/30 12:39:48;;;;;;;10.32;6.30;;;;;;;;;;5095001;28;20190;-70
2022/03/30 12:42:17;;;;;;;10.15;6.72;;;;;;;;;;5095623;28;20237;-71
2022/03/30 12:44:48;;;;;;;15.45;8.45;;;;;;;;;;5095888;28;20233;-71
2022/03/30 12:47:17;;;;;;;13.23;8.03;;;;;;;;;;5095691;28;20229;-71
2022/03/30 12:49:45;;;;;;;15.90;9.70;;;;;;;;;;5095621;28;20541;-70
2022/03/30 12:52:13;;;;;;;15.43;7.80;;;;;;;;;;5095355;28;20435;-68
2022/03/30 12:54:41;;;;;;;13.77;8.70;;;;;;;;;;5095534;28;20573;-70
2022/03/30 12:57:08;;;;;;;8.88;6.93;;;;;;;;;;5095869;28;20463;-70
2022/03/30 12:59:38;;;;;;;11.67;6.73;;;;;;;;;;5095298;28;20284;-70
2022/03/30 13:02:19;;;;;;;13.93;7.80;;;;;;;;;;5095421;28;20838;-70
2022/03/30 13:04:49;;;;;;;14.57;7.53;;;;;;;;;;5095538;28;20440;-71
2022/03/30 13:07:21;;;;;;;13.80;8.40;;;;;;;;;;5095134;28;20527;-69
2022/03/30 13:10:10;;;;;;;12.50;7.27;;;;;;;;;;5094956;28;20519;-69
2022/03/30 13:12:41;;;;;;;9.47;7.17;;;;;;;;;;5095357;28;20958;-69
2022/03/30 13:15:11;;;;;;;9.60;6.65;;;;;;;;;;5095208;28;20486;-70
2022/03/30 13:17:53;;;;;;;9.90;7.00;;;;;;;;;;5094537;28;20202;-70
2022/03/30 13:20:20;;;;;;;8.93;6.03;;;;;;;;;;5095381;28;20428;-70
2022/03/30 13:22:51;;;;;;;11.97;7.27;;;;;;;;;;5095835;28;20220;-70
2022/03/30 13:25:25;;;;;;;10.15;6.90;;;;;;;;;;5095159;28;20546;-70
2022/03/30 13:27:52;;;;;;;12.40;7.00;;;;;;;;;;5096056;28;20597;-69
2022/03/30 13:30:21;;;;;;;9.93;6.60;;;;;;;;;;5094901;28;20459;-69
2022/03/30 13:32:49;;;;;;;9.17;6.50;;;;;;;;;;5095670;28;20467;-69
2022/03/30 13:35:16;;;;;;;16.17;6.30;;;;;;;;;;5094568;28;20562;-69
2022/03/30 13:37:43;;;;;;;11.43;7.17;;;;;;;;;;5094591;28;20807;-69
2022/03/30 13:40:11;;;;;;;12.20;6.90;;;;;;;;;;5094390;28;20475;-70
2022/03/30 13:42:38;;;;;;;11.37;6.97;;;;;;;;;;5094532;28;20451;-68
2022/03/30 13:45:06;;;;;;;11.03;6.70;;;;;;;;;;5094679;28;20567;-68
2022/03/30 13:47:35;;;;;;;14.50;7.90;;;;;;;;;;5095413;28;20460;-69
2022/03/30 13:50:03;;;;;;;11.33;6.90;;;;;;;;;;5094928;28;20468;-69
2022/03/30 13:52:30;;;;;;;9.52;7.03;;;;;;;;;;5094743;28;20431;-69
2022/03/30 13:54:57;;;;;;;10.50;7.37;;;;;;;;;;5094558;28;20217;-68
2022/03/30 13:57:25;;;;;;;15.40;8.27;;;;;;;;;;5094122;28;20572;-68
2022/03/30 13:59:53;;;;;;;11.40;7.83;;;;;;;;;;5094723;28;20446;-68
2022/03/30 14:02:21;;;;;;;11.43;6.87;;;;;;;;;;5094599;28;20451;-68
2022/03/30 14:04:49;;;;;;;13.18;8.80;;;;;;;;;;5094357;28;20530;-68
2022/03/30 14:07:16;;;;;;;20.70;9.90;;;;;;;;;;5094688;28;20197;-68
2022/03/30 14:09:44;;;;;;;17.03;10.33;;;;;;;;;;5094643;28;20451;-68
2022/03/30 14:12:11;;;;;;;13.77;9.90;;;;;;;;;;5094642;28;20799;-69
2022/03/30 14:14:38;;;;;;;17.77;9.30;;;;;;;;;;5094354;28;20485;-70
2022/03/30 14:17:06;;;;;;;16.83;9.50;;;;;;;;;;5095142;28;20475;-70
2022/03/30 14:19:33;;;;;;;14.40;9.18;;;;;;;;;;5094228;28;20442;-70
2022/03/30 14:22:02;;;;;;;13.95;9.73;;;;;;;;;;5094523;28;20270;-69
2022/03/30 14:24:29;;;;;;;16.15;9.40;;;;;;;;;;5094219;28;20289;-70
2022/03/30 14:26:56;;;;;;;16.23;9.05;;;;;;;;;;5094203;28;20198;-69
2022/03/30 14:29:23;;;;;;;15.57;10.15;;;;;;;;;;5094348;28;20626;-68
2022/03/30 14:31:52;;;;;;;13.90;9.03;;;;;;;;;;5094230;28;20262;-69
2022/03/30 14:34:19;;;;;;;12.00;8.87;;;;;;;;;;5094090;28;20479;-70
2022/03/30 14:36:47;;;;;;;16.47;8.53;;;;;;;;;;5094077;28;20950;-70
2022/03/30 14:39:16;;;;;;;13.67;9.33;;;;;;;;;;5094145;28;20440;-69
2022/03/30 14:41:45;;;;;;;16.10;10.17;;;;;;;;;;5093639;28;20473;-69